EGPB/LSI METAR and TAF weather

Enter ICAO airport designator
Station Type Date Time Source
EGPB METAR 2020/11/27 14:50 UTC NOAA

EGPB 271450Z 03004KT 3000 -DZRA BKN006 07/07 Q1017


Station Type Date Time Source
EGPB Decoded METAR 2020/11/27 14:50 UTC NOAA

Sumburgh Cape , United Kingdom (EGPB) 59-53N 001-18W
Nov 27, 2020 - 09:50 AM EST / 2020.11.27 1450 UTC
Wind: from the NNE (030 degrees) at 5 MPH (4 KT):0
Visibility: 1 mile(s):0
Sky conditions: mostly cloudy
Weather: light drizzle, rain
Temperature: 44 F (7 C)
Dew Point: 44 F (7 C)
Relative Humidity: 100%
Pressure (altimeter): 30.03 in. Hg (1017 hPa)
ob: EGPB 271450Z 03004KT 3000 -DZRA BKN006 07/07 Q1017
cycle: 15

Station Type Date Time Source
EGPB TAF UTC NOAA

Error!

Example: see airport list